Time;durP1;ratioP1;P1;durP2;ratioP2;P2;SDS_P1;SDS_P2;PMS_P1;PMS_P2;Temp;Humidity;BMP_temperature;BMP_pressure;BME280_temperature;BME280_humidity;BME280_pressure;Samples;Min_cycle;Max_cycle;Signal;HPM_P1;HPM_P2
2022/12/25 00:00:05;;;;;;;4.30;3.10;;;;;;;;;;5048310;28;20260;-62
2022/12/25 00:02:32;;;;;;;6.37;2.83;;;;;;;;;;5036789;28;20204;-63
2022/12/25 00:04:59;;;;;;;5.33;1.93;;;;;;;;;;5036026;28;20227;-62
2022/12/25 00:07:27;;;;;;;4.47;2.37;;;;;;;;;;5037926;28;20212;-63
2022/12/25 00:09:54;;;;;;;2.80;2.50;;;;;;;;;;5035398;28;20211;-62
2022/12/25 00:12:21;;;;;;;3.73;2.60;;;;;;;;;;5032570;28;20208;-62
2022/12/25 00:14:49;;;;;;;9.57;2.73;;;;;;;;;;5034577;28;20291;-62
2022/12/25 00:17:16;;;;;;;6.57;2.53;;;;;;;;;;5046061;28;20743;-62
2022/12/25 00:19:43;;;;;;;9.03;3.03;;;;;;;;;;5045122;28;20209;-62
2022/12/25 00:22:10;;;;;;;4.17;2.43;;;;;;;;;;5034147;28;20224;-62
2022/12/25 00:24:39;;;;;;;5.00;3.13;;;;;;;;;;5031569;28;20283;-63
2022/12/25 00:27:06;;;;;;;3.50;2.50;;;;;;;;;;5045267;28;20290;-62
2022/12/25 00:29:33;;;;;;;10.63;2.30;;;;;;;;;;5040775;28;20216;-63
2022/12/25 00:32:00;;;;;;;4.30;2.33;;;;;;;;;;5033359;28;20666;-64
2022/12/25 00:34:27;;;;;;;3.13;2.80;;;;;;;;;;5036651;28;20211;-62
2022/12/25 00:36:54;;;;;;;6.43;2.60;;;;;;;;;;5031311;28;20223;-62
2022/12/25 00:39:21;;;;;;;2.27;2.10;;;;;;;;;;5049842;28;20310;-62
2022/12/25 00:44:34;;;;;;;5.00;2.23;;;;;;;;;;5035626;28;20232;-63
2022/12/25 00:47:01;;;;;;;5.50;2.97;;;;;;;;;;5042144;28;20209;-62
2022/12/25 00:49:28;;;;;;;9.20;2.87;;;;;;;;;;5030595;28;20209;-62
2022/12/25 00:51:56;;;;;;;5.33;2.47;;;;;;;;;;5031507;28;20212;-61
2022/12/25 00:54:23;;;;;;;6.87;2.83;;;;;;;;;;5048325;28;20207;-63
2022/12/25 00:56:51;;;;;;;4.77;2.43;;;;;;;;;;5043594;28;20270;-62
2022/12/25 00:59:18;;;;;;;5.63;2.00;;;;;;;;;;5047249;28;20658;-62
2022/12/25 01:01:45;;;;;;;9.00;2.67;;;;;;;;;;5035352;28;20209;-62
2022/12/25 01:04:12;;;;;;;8.83;2.63;;;;;;;;;;5045132;28;20227;-62
2022/12/25 01:06:40;;;;;;;6.50;2.83;;;;;;;;;;5049267;28;20204;-62
2022/12/25 01:11:53;;;;;;;2.60;2.23;;;;;;;;;;5037382;28;20239;-62
2022/12/25 01:14:20;;;;;;;1.97;1.87;;;;;;;;;;5035118;28;20242;-63
2022/12/25 01:16:47;;;;;;;3.20;2.60;;;;;;;;;;5039944;28;20296;-63
2022/12/25 01:19:14;;;;;;;9.00;2.93;;;;;;;;;;5040277;28;20274;-62
2022/12/25 01:21:41;;;;;;;5.33;2.40;;;;;;;;;;5030997;28;20591;-62
2022/12/25 01:24:08;;;;;;;2.73;2.40;;;;;;;;;;5028690;28;20243;-62
2022/12/25 01:26:35;;;;;;;2.77;2.47;;;;;;;;;;5029537;28;20218;-62
2022/12/25 01:29:04;;;;;;;6.03;2.93;;;;;;;;;;5033172;28;20226;-62
2022/12/25 01:31:31;;;;;;;7.30;2.47;;;;;;;;;;5031096;28;20211;-61
2022/12/25 01:33:58;;;;;;;8.80;2.93;;;;;;;;;;5040389;28;20234;-62
2022/12/25 01:36:26;;;;;;;2.37;2.17;;;;;;;;;;5040017;28;20212;-62
2022/12/25 01:38:53;;;;;;;3.30;2.90;;;;;;;;;;5036182;28;20598;-62
2022/12/25 01:41:22;;;;;;;5.70;2.57;;;;;;;;;;5042507;28;20200;-62
2022/12/25 01:43:59;;;;;;;6.43;2.33;;;;;;;;;;5030437;28;20232;-62
2022/12/25 01:46:28;;;;;;;9.57;2.70;;;;;;;;;;5035218;28;20966;-62
2022/12/25 01:48:56;;;;;;;5.40;2.73;;;;;;;;;;5045103;28;20677;-62
2022/12/25 01:51:25;;;;;;;6.57;2.53;;;;;;;;;;5043642;28;20204;-62
2022/12/25 01:53:52;;;;;;;3.10;2.47;;;;;;;;;;5049192;28;20211;-62
2022/12/25 01:56:22;;;;;;;6.63;2.93;;;;;;;;;;5036047;28;20231;-62
2022/12/25 01:58:49;;;;;;;6.00;2.90;;;;;;;;;;5027191;28;20291;-61
2022/12/25 02:01:16;;;;;;;3.70;2.70;;;;;;;;;;5033483;28;20234;-62
2022/12/25 02:03:44;;;;;;;2.90;2.70;;;;;;;;;;5040153;28;20236;-62
2022/12/25 02:06:12;;;;;;;2.83;2.63;;;;;;;;;;5029494;28;20612;-62
2022/12/25 02:08:40;;;;;;;4.80;2.60;;;;;;;;;;5036564;28;20237;-62
2022/12/25 02:11:55;;;;;;;3.33;2.73;;;;;;;;;;5040765;28;20243;-61
2022/12/25 02:13:56;;;;;;;3.43;2.50;;;;;;;;;;5037971;28;20294;-62
2022/12/25 02:16:26;;;;;;;10.77;2.73;;;;;;;;;;5030909;28;20687;-62
2022/12/25 02:18:58;;;;;;;6.10;3.03;;;;;;;;;;5032013;28;20210;-62
2022/12/25 02:21:31;;;;;;;2.60;2.23;;;;;;;;;;5041306;28;20821;-62
2022/12/25 02:24:07;;;;;;;4.47;2.77;;;;;;;;;;5028394;28;20244;-62
2022/12/25 02:26:55;;;;;;;3.90;3.00;;;;;;;;;;5029308;28;20208;-62
2022/12/25 02:29:25;;;;;;;4.23;2.60;;;;;;;;;;5028644;28;20215;-62
2022/12/25 02:31:56;;;;;;;2.57;1.87;;;;;;;;;;5028154;28;20223;-62
2022/12/25 02:34:32;;;;;;;4.27;2.67;;;;;;;;;;5043799;28;20207;-62
2022/12/25 02:37:03;;;;;;;4.97;2.60;;;;;;;;;;5037787;28;20207;-62
2022/12/25 02:42:23;;;;;;;4.87;1.97;;;;;;;;;;5034496;28;20215;-62
2022/12/25 03:07:11;;;;;;;1.60;1.50;;;;;;;;;;5033055;28;20207;-62
2022/12/25 03:12:35;;;;;;;1.80;1.70;;;;;;;;;;5037458;28;20214;-63
2022/12/25 03:29:08;;;;;;;2.33;1.67;;;;;;;;;;5029801;28;20323;-62
2022/12/25 03:31:39;;;;;;;2.13;1.90;;;;;;;;;;5036406;28;20728;-62
2022/12/25 03:37:21;;;;;;;2.50;1.87;;;;;;;;;;5031627;28;20208;-62
2022/12/25 04:38:01;;;;;;;5.30;2.13;;;;;;;;;;5038754;28;20223;-62
2022/12/25 04:40:28;;;;;;;3.77;2.30;;;;;;;;;;5034021;28;20279;-61
2022/12/25 04:42:56;;;;;;;2.53;2.23;;;;;;;;;;5036704;28;20263;-62
2022/12/25 04:45:23;;;;;;;3.30;1.90;;;;;;;;;;5030105;28;20236;-62
2022/12/25 04:47:50;;;;;;;3.20;2.13;;;;;;;;;;5041644;28;20215;-61
2022/12/25 04:50:17;;;;;;;1.83;1.70;;;;;;;;;;5038690;28;20207;-62
2022/12/25 04:52:44;;;;;;;3.30;1.93;;;;;;;;;;5038954;28;20199;-62
2022/12/25 04:55:12;;;;;;;2.03;1.70;;;;;;;;;;5029718;28;20902;-62
2022/12/25 04:57:39;;;;;;;6.63;2.23;;;;;;;;;;5033093;28;20216;-62
2022/12/25 05:00:08;;;;;;;5.13;2.03;;;;;;;;;;5032982;28;20258;-62
2022/12/25 05:02:35;;;;;;;2.93;2.37;;;;;;;;;;5030987;28;20215;-64
2022/12/25 05:05:02;;;;;;;3.63;1.73;;;;;;;;;;5049631;28;20301;-62
2022/12/25 05:07:29;;;;;;;2.27;2.17;;;;;;;;;;5048908;28;20226;-62
2022/12/25 05:09:57;;;;;;;1.93;1.50;;;;;;;;;;5030386;28;20270;-62
2022/12/25 05:12:24;;;;;;;1.87;1.77;;;;;;;;;;5028815;28;20208;-62
2022/12/25 05:14:51;;;;;;;5.63;1.50;;;;;;;;;;5047375;28;20658;-62
2022/12/25 05:17:19;;;;;;;1.73;1.63;;;;;;;;;;5035938;28;20207;-61
2022/12/25 05:19:46;;;;;;;2.03;1.37;;;;;;;;;;5029369;28;20208;-61
2022/12/25 05:22:13;;;;;;;4.53;1.50;;;;;;;;;;5031741;28;20219;-62
2022/12/25 05:24:40;;;;;;;2.10;1.97;;;;;;;;;;5049404;28;20227;-62
2022/12/25 05:27:07;;;;;;;1.90;1.20;;;;;;;;;;5039583;28;20253;-62
2022/12/25 05:29:34;;;;;;;2.60;1.70;;;;;;;;;;5033168;28;20234;-61
2022/12/25 05:32:02;;;;;;;2.27;2.07;;;;;;;;;;5038059;28;20246;-62
2022/12/25 05:34:30;;;;;;;4.73;1.60;;;;;;;;;;5029302;28;20208;-62
2022/12/25 05:37:09;;;;;;;2.40;1.33;;;;;;;;;;5040587;28;20211;-62
2022/12/25 05:39:36;;;;;;;1.87;1.67;;;;;;;;;;5034215;28;20212;-61
2022/12/25 05:42:03;;;;;;;2.93;1.90;;;;;;;;;;5044318;28;20286;-62
2022/12/25 05:44:30;;;;;;;2.33;1.40;;;;;;;;;;5030722;28;20235;-62
2022/12/25 05:46:57;;;;;;;1.80;1.63;;;;;;;;;;5038420;28;20207;-61
2022/12/25 05:49:24;;;;;;;1.90;1.80;;;;;;;;;;5035660;28;20208;-62
2022/12/25 05:51:52;;;;;;;2.60;2.23;;;;;;;;;;5039528;28;20215;-62
2022/12/25 05:54:19;;;;;;;3.07;1.63;;;;;;;;;;5037725;28;20211;-62
2022/12/25 05:56:46;;;;;;;5.53;1.83;;;;;;;;;;5040556;28;20232;-62
2022/12/25 05:59:13;;;;;;;2.87;1.57;;;;;;;;;;5033441;28;20211;-62
2022/12/25 06:01:40;;;;;;;4.07;1.90;;;;;;;;;;5040398;28;20671;-62
2022/12/25 06:04:07;;;;;;;1.60;1.50;;;;;;;;;;5042373;28;20208;-62
2022/12/25 06:06:34;;;;;;;1.90;1.63;;;;;;;;;;5029459;28;20552;-62
2022/12/25 06:09:03;;;;;;;1.53;1.43;;;;;;;;;;5040230;28;20204;-62
2022/12/25 06:11:30;;;;;;;2.03;1.93;;;;;;;;;;5037196;28;20243;-62
2022/12/25 06:13:57;;;;;;;4.30;1.47;;;;;;;;;;5042159;28;20717;-62
2022/12/25 06:16:24;;;;;;;2.57;1.80;;;;;;;;;;5043557;28;20262;-63
2022/12/25 06:18:51;;;;;;;3.90;1.30;;;;;;;;;;5038003;28;20212;-63
2022/12/25 06:21:18;;;;;;;3.17;1.50;;;;;;;;;;5027199;28;20212;-62
2022/12/25 06:23:46;;;;;;;6.20;1.70;;;;;;;;;;5029927;28;20207;-63
2022/12/25 06:26:15;;;;;;;5.57;2.03;;;;;;;;;;5032361;28;20232;-62
2022/12/25 06:28:43;;;;;;;1.83;1.43;;;;;;;;;;5032079;28;20237;-62
2022/12/25 06:31:11;;;;;;;1.60;1.50;;;;;;;;;;5037913;28;20612;-62
2022/12/25 06:33:38;;;;;;;1.60;1.50;;;;;;;;;;5027950;28;20228;-62
2022/12/25 06:36:07;;;;;;;1.60;1.50;;;;;;;;;;5028608;28;20204;-61
2022/12/25 06:38:40;;;;;;;3.53;1.80;;;;;;;;;;5032007;28;20216;-62
2022/12/25 06:41:09;;;;;;;2.00;1.90;;;;;;;;;;5039258;28;20658;-62
2022/12/25 06:43:37;;;;;;;1.90;1.70;;;;;;;;;;5034263;28;20291;-62
2022/12/25 06:46:04;;;;;;;2.10;1.50;;;;;;;;;;5028586;28;20247;-62
2022/12/25 06:48:32;;;;;;;1.77;1.67;;;;;;;;;;5031638;28;20243;-62
2022/12/25 06:50:59;;;;;;;1.43;1.33;;;;;;;;;;5036026;28;20629;-62
2022/12/25 06:53:26;;;;;;;11.67;4.33;;;;;;;;;;5037739;28;20268;-61
2022/12/25 06:55:53;;;;;;;6.23;4.57;;;;;;;;;;5036822;28;20510;-62
2022/12/25 06:58:20;;;;;;;3.03;2.60;;;;;;;;;;5041676;28;20305;-62
2022/12/25 07:00:49;;;;;;;2.33;2.20;;;;;;;;;;5045584;28;20203;-62
2022/12/25 07:03:19;;;;;;;2.60;1.77;;;;;;;;;;5029012;28;20204;-62
2022/12/25 07:05:46;;;;;;;2.23;1.67;;;;;;;;;;5031974;28;20263;-62
2022/12/25 07:08:14;;;;;;;3.73;1.67;;;;;;;;;;5033376;28;20232;-61
2022/12/25 07:10:41;;;;;;;4.63;2.03;;;;;;;;;;5051582;28;20714;-63
2022/12/25 07:13:08;;;;;;;2.07;1.97;;;;;;;;;;5034191;28;20259;-63
2022/12/25 07:15:35;;;;;;;1.30;1.30;;;;;;;;;;5042231;28;20195;-62
2022/12/25 07:18:04;;;;;;;3.13;1.80;;;;;;;;;;5031902;28;20212;-61
2022/12/25 07:20:31;;;;;;;1.50;1.40;;;;;;;;;;5037432;28;20270;-62
2022/12/25 07:22:58;;;;;;;2.43;1.33;;;;;;;;;;5031434;28;20655;-62
2022/12/25 07:25:25;;;;;;;3.20;1.70;;;;;;;;;;5031114;28;20315;-63
2022/12/25 07:27:52;;;;;;;2.00;1.70;;;;;;;;;;5031422;28;20256;-62
2022/12/25 07:30:19;;;;;;;2.80;1.70;;;;;;;;;;5033780;28;20262;-62
2022/12/25 07:32:46;;;;;;;2.40;1.80;;;;;;;;;;5033485;28;20257;-62
2022/12/25 07:35:15;;;;;;;1.10;1.10;;;;;;;;;;5047929;28;20709;-62
2022/12/25 07:37:42;;;;;;;1.60;1.50;;;;;;;;;;5040271;28;20662;-62
2022/12/25 07:40:10;;;;;;;1.80;1.50;;;;;;;;;;5046185;28;20207;-62
2022/12/25 07:42:37;;;;;;;7.23;3.60;;;;;;;;;;5031483;28;20307;-62
2022/12/25 07:45:05;;;;;;;133.13;38.77;;;;;;;;;;5045138;28;20681;-62
2022/12/25 07:47:32;;;;;;;88.57;28.77;;;;;;;;;;5046668;28;20212;-63
2022/12/25 07:49:59;;;;;;;100.33;30.80;;;;;;;;;;5038839;28;20212;-63
2022/12/25 07:52:27;;;;;;;149.60;46.83;;;;;;;;;;5039098;28;20215;-62
2022/12/25 07:54:54;;;;;;;69.07;22.17;;;;;;;;;;5043948;28;20208;-63
2022/12/25 07:57:21;;;;;;;46.80;18.07;;;;;;;;;;5037078;28;20678;-63
2022/12/25 07:59:48;;;;;;;25.33;8.90;;;;;;;;;;5046324;28;20951;-62
2022/12/25 08:02:15;;;;;;;12.90;6.63;;;;;;;;;;5030465;28;20208;-61
2022/12/25 08:04:42;;;;;;;14.23;4.73;;;;;;;;;;5031267;28;20266;-62
2022/12/25 08:07:09;;;;;;;5.43;3.40;;;;;;;;;;5045851;28;20207;-62
2022/12/25 08:09:38;;;;;;;6.93;3.90;;;;;;;;;;5031029;28;20598;-61
2022/12/25 08:12:05;;;;;;;2.90;2.07;;;;;;;;;;5045055;28;20235;-62
2022/12/25 08:14:32;;;;;;;7.23;3.70;;;;;;;;;;5033224;28;20659;-61
2022/12/25 08:16:59;;;;;;;6.87;3.93;;;;;;;;;;5031287;28;20209;-61
2022/12/25 08:19:27;;;;;;;17.27;5.93;;;;;;;;;;5050007;28;20706;-61
2022/12/25 08:21:55;;;;;;;7.17;4.70;;;;;;;;;;5046885;28;20250;-62
2022/12/25 08:24:22;;;;;;;4.57;3.50;;;;;;;;;;5030580;28;20212;-62
2022/12/25 08:26:50;;;;;;;3.63;3.17;;;;;;;;;;5043077;28;20227;-62
2022/12/25 08:29:17;;;;;;;2.33;2.23;;;;;;;;;;5040867;28;20678;-62
2022/12/25 08:31:44;;;;;;;6.37;2.73;;;;;;;;;;5041840;28;20216;-62
2022/12/25 08:34:11;;;;;;;4.30;2.37;;;;;;;;;;5050757;28;20265;-62
2022/12/25 08:36:40;;;;;;;2.77;2.37;;;;;;;;;;5036078;28;20289;-63
2022/12/25 08:39:07;;;;;;;1.70;1.60;;;;;;;;;;5034839;28;20315;-63
2022/12/25 08:41:35;;;;;;;2.13;1.90;;;;;;;;;;5042077;28;20766;-63
2022/12/25 08:44:03;;;;;;;2.20;1.87;;;;;;;;;;5038156;28;20218;-63
2022/12/25 08:46:31;;;;;;;2.07;1.93;;;;;;;;;;5032701;28;20244;-63
2022/12/25 08:48:58;;;;;;;1.50;1.33;;;;;;;;;;5033540;28;20207;-63
2022/12/25 08:51:26;;;;;;;2.07;1.47;;;;;;;;;;5030511;28;20232;-63
2022/12/25 08:53:54;;;;;;;3.90;1.50;;;;;;;;;;5035810;28;20203;-63
2022/12/25 08:56:21;;;;;;;2.50;1.67;;;;;;;;;;5032629;28;20715;-64
2022/12/25 08:58:48;;;;;;;1.43;1.33;;;;;;;;;;5035935;28;20208;-63
2022/12/25 09:01:16;;;;;;;2.60;1.60;;;;;;;;;;5030457;28;20223;-62
2022/12/25 09:03:44;;;;;;;1.70;1.60;;;;;;;;;;5030503;28;20233;-63
2022/12/25 09:06:13;;;;;;;3.07;2.77;;;;;;;;;;5036115;28;20805;-70
2022/12/25 09:08:40;;;;;;;2.60;2.40;;;;;;;;;;5033517;28;20212;-66
2022/12/25 09:11:20;;;;;;;1.63;1.53;;;;;;;;;;5029891;28;20240;-67
2022/12/25 09:13:47;;;;;;;1.63;1.40;;;;;;;;;;5035470;28;20207;-66
2022/12/25 09:16:32;;;;;;;1.97;1.77;;;;;;;;;;5042917;28;20203;-66
2022/12/25 09:19:01;;;;;;;3.53;1.73;;;;;;;;;;5046391;28;20216;-64
2022/12/25 09:21:28;;;;;;;3.30;1.80;;;;;;;;;;5039773;28;20289;-63
2022/12/25 09:23:55;;;;;;;1.83;1.73;;;;;;;;;;5034739;28;20577;-64
2022/12/25 09:26:22;;;;;;;1.93;1.53;;;;;;;;;;5032818;28;20227;-64
2022/12/25 09:28:49;;;;;;;1.67;1.57;;;;;;;;;;5049593;28;20608;-63
2022/12/25 09:31:16;;;;;;;1.93;1.70;;;;;;;;;;5037964;28;20233;-62
2022/12/25 09:33:43;;;;;;;2.03;1.90;;;;;;;;;;5029864;28;20785;-62
2022/12/25 09:36:12;;;;;;;4.97;1.90;;;;;;;;;;5037618;28;20200;-63
2022/12/25 09:38:39;;;;;;;2.43;2.20;;;;;;;;;;5046967;28;20216;-64
2022/12/25 09:41:08;;;;;;;3.23;2.70;;;;;;;;;;5039366;28;20627;-64
2022/12/25 09:43:39;;;;;;;3.23;1.77;;;;;;;;;;5027866;28;20277;-64
2022/12/25 09:46:08;;;;;;;2.10;1.90;;;;;;;;;;5032977;28;20225;-63
2022/12/25 09:48:36;;;;;;;1.60;1.53;;;;;;;;;;5040354;28;20212;-64
2022/12/25 09:51:05;;;;;;;1.57;1.43;;;;;;;;;;5031796;28;20258;-63
2022/12/25 09:53:36;;;;;;;1.67;1.53;;;;;;;;;;5039569;28;20208;-64
2022/12/25 09:56:06;;;;;;;6.43;2.00;;;;;;;;;;5036728;28;20310;-63
2022/12/25 09:58:34;;;;;;;1.83;1.70;;;;;;;;;;5041105;28;20242;-64
2022/12/25 10:01:04;;;;;;;1.80;1.23;;;;;;;;;;5030229;28;20208;-64
2022/12/25 10:03:39;;;;;;;3.63;1.80;;;;;;;;;;5030553;28;20295;-64
2022/12/25 10:06:11;;;;;;;3.37;2.10;;;;;;;;;;5028950;28;20621;-66
2022/12/25 10:08:50;;;;;;;1.63;1.20;;;;;;;;;;5033011;28;20201;-66
2022/12/25 10:11:22;;;;;;;1.30;1.27;;;;;;;;;;5037605;28;20730;-63
2022/12/25 10:13:57;;;;;;;3.97;2.13;;;;;;;;;;5036139;28;20258;-64
2022/12/25 10:16:28;;;;;;;2.37;1.30;;;;;;;;;;5044460;28;20650;-63
2022/12/25 10:19:00;;;;;;;3.27;1.37;;;;;;;;;;5039868;28;20288;-65
2022/12/25 10:21:27;;;;;;;1.30;1.20;;;;;;;;;;5046527;28;20250;-62
2022/12/25 10:24:03;;;;;;;2.63;1.67;;;;;;;;;;5048875;28;20302;-63
2022/12/25 10:26:31;;;;;;;2.03;1.93;;;;;;;;;;5044205;28;20276;-63
2022/12/25 10:29:00;;;;;;;1.23;1.23;;;;;;;;;;5037232;28;20208;-64
2022/12/25 10:31:29;;;;;;;1.60;1.50;;;;;;;;;;5033029;28;20227;-62
2022/12/25 10:33:58;;;;;;;2.93;1.80;;;;;;;;;;5036902;28;20781;-66
2022/12/25 10:36:26;;;;;;;1.70;1.60;;;;;;;;;;5039233;28;20228;-63
2022/12/25 10:38:53;;;;;;;2.93;2.00;;;;;;;;;;5050736;28;20555;-65
2022/12/25 10:41:30;;;;;;;3.33;1.63;;;;;;;;;;5049822;28;20670;-65
2022/12/25 10:43:57;;;;;;;1.97;1.57;;;;;;;;;;5050767;28;20241;-63
2022/12/25 10:46:25;;;;;;;2.07;1.97;;;;;;;;;;5048782;28;20227;-63
2022/12/25 10:48:54;;;;;;;2.60;1.97;;;;;;;;;;5043477;28;20208;-63
2022/12/25 10:51:31;;;;;;;2.57;2.37;;;;;;;;;;5042523;28;20212;-63
2022/12/25 10:53:58;;;;;;;3.27;2.33;;;;;;;;;;5050324;28;20218;-61
2022/12/25 10:56:27;;;;;;;3.50;1.90;;;;;;;;;;5040491;28;20224;-66
2022/12/25 10:59:04;;;;;;;1.67;1.67;;;;;;;;;;5035709;28;20578;-66
2022/12/25 11:01:31;;;;;;;2.33;1.83;;;;;;;;;;5040466;28;20286;-64
2022/12/25 11:03:58;;;;;;;2.00;1.90;;;;;;;;;;5035129;28;20199;-63
2022/12/25 11:06:26;;;;;;;3.70;2.37;;;;;;;;;;5038222;28;20247;-62
2022/12/25 11:08:55;;;;;;;6.10;3.17;;;;;;;;;;5035306;28;20208;-62
2022/12/25 11:11:22;;;;;;;7.93;3.53;;;;;;;;;;5041822;28;20976;-65
2022/12/25 11:13:52;;;;;;;7.60;3.50;;;;;;;;;;5036602;28;20215;-66
2022/12/25 11:16:26;;;;;;;4.17;2.40;;;;;;;;;;5036277;28;20224;-62
2022/12/25 11:18:54;;;;;;;4.00;2.10;;;;;;;;;;5050430;28;20204;-63
2022/12/25 11:21:23;;;;;;;8.20;2.83;;;;;;;;;;5037922;28;20209;-63
2022/12/25 11:23:51;;;;;;;3.37;2.90;;;;;;;;;;5034910;28;20690;-63
2022/12/25 11:26:19;;;;;;;2.53;2.40;;;;;;;;;;5040873;28;20227;-63
2022/12/25 11:28:46;;;;;;;8.03;4.20;;;;;;;;;;5040115;28;20272;-63
2022/12/25 11:31:17;;;;;;;5.37;4.17;;;;;;;;;;5046709;28;20215;-63
2022/12/25 11:33:46;;;;;;;3.10;2.80;;;;;;;;;;5039205;28;20207;-63
2022/12/25 11:36:16;;;;;;;2.77;2.50;;;;;;;;;;5048405;28;20265;-63
2022/12/25 11:38:43;;;;;;;3.63;3.13;;;;;;;;;;5037160;28;20208;-63
2022/12/25 11:41:11;;;;;;;7.00;2.50;;;;;;;;;;5040887;28;20213;-61
2022/12/25 11:43:40;;;;;;;6.60;2.57;;;;;;;;;;5039768;28;20208;-62
2022/12/25 11:46:12;;;;;;;3.57;2.70;;;;;;;;;;5040345;28;21742;-63
2022/12/25 11:48:42;;;;;;;5.37;3.00;;;;;;;;;;5039256;28;20713;-63
2022/12/25 11:51:10;;;;;;;2.63;2.47;;;;;;;;;;5033116;28;21699;-62
2022/12/25 11:53:40;;;;;;;2.97;2.43;;;;;;;;;;5041782;28;20287;-62
2022/12/25 11:56:09;;;;;;;3.17;2.93;;;;;;;;;;5037562;28;20323;-63
2022/12/25 11:58:38;;;;;;;3.03;2.80;;;;;;;;;;5045598;28;20265;-63
2022/12/25 12:01:09;;;;;;;5.10;3.77;;;;;;;;;;5048236;28;20275;-62
2022/12/25 12:03:37;;;;;;;4.93;2.67;;;;;;;;;;5038663;28;20223;-63
2022/12/25 12:06:08;;;;;;;2.70;2.60;;;;;;;;;;5041008;28;20212;-62
2022/12/25 12:08:35;;;;;;;2.77;2.40;;;;;;;;;;5050357;28;20242;-63
2022/12/25 12:11:16;;;;;;;2.50;2.23;;;;;;;;;;5049102;28;20247;-62
2022/12/25 12:13:50;;;;;;;3.50;2.90;;;;;;;;;;5044030;28;20211;-65
2022/12/25 12:16:17;;;;;;;2.50;2.17;;;;;;;;;;5033592;28;20669;-66
2022/12/25 12:18:44;;;;;;;2.53;1.70;;;;;;;;;;5039244;28;20259;-67
2022/12/25 12:21:21;;;;;;;3.23;2.27;;;;;;;;;;5036272;28;20296;-66
2022/12/25 12:23:50;;;;;;;2.67;1.97;;;;;;;;;;5047565;28;20240;-65
2022/12/25 12:26:19;;;;;;;2.10;2.00;;;;;;;;;;5033468;28;20820;-63
2022/12/25 12:28:47;;;;;;;2.03;1.93;;;;;;;;;;5034454;28;20603;-65
2022/12/25 12:31:14;;;;;;;2.13;2.03;;;;;;;;;;5033819;28;20269;-65
2022/12/25 12:33:43;;;;;;;4.23;2.83;;;;;;;;;;5041723;28;20204;-64
2022/12/25 12:36:12;;;;;;;3.70;2.40;;;;;;;;;;5031721;28;20268;-65
2022/12/25 12:38:42;;;;;;;5.03;2.23;;;;;;;;;;5032055;28;20262;-64
2022/12/25 12:41:10;;;;;;;2.83;1.90;;;;;;;;;;5044632;28;20206;-66
2022/12/25 12:43:39;;;;;;;2.40;2.13;;;;;;;;;;5033171;28;20266;-66
2022/12/25 12:46:13;;;;;;;1.97;1.87;;;;;;;;;;5037519;28;20242;-65
2022/12/25 12:48:41;;;;;;;2.50;1.77;;;;;;;;;;5031425;28;20211;-65
2022/12/25 12:51:09;;;;;;;2.67;1.70;;;;;;;;;;5044656;28;20223;-65
2022/12/25 12:53:38;;;;;;;4.93;2.20;;;;;;;;;;5044099;28;20207;-66
2022/12/25 12:56:17;;;;;;;1.70;1.60;;;;;;;;;;5039028;28;20220;-64
2022/12/25 12:58:47;;;;;;;2.40;2.20;;;;;;;;;;5030183;28;20208;-64
2022/12/25 13:01:17;;;;;;;2.03;1.93;;;;;;;;;;5035757;28;20212;-65
2022/12/25 13:03:52;;;;;;;2.03;1.73;;;;;;;;;;5032702;28;20204;-66
2022/12/25 13:06:22;;;;;;;1.80;1.67;;;;;;;;;;5030214;28;20219;-65
2022/12/25 13:08:57;;;;;;;2.00;1.90;;;;;;;;;;5037216;28;20302;-64
2022/12/25 13:11:26;;;;;;;1.70;1.70;;;;;;;;;;5038694;28;20246;-66
2022/12/25 13:13:54;;;;;;;2.27;1.53;;;;;;;;;;5030769;28;20211;-64
2022/12/25 13:16:25;;;;;;;1.83;1.73;;;;;;;;;;5045380;28;20200;-66
2022/12/25 13:18:53;;;;;;;1.50;1.40;;;;;;;;;;5047962;28;20211;-65
2022/12/25 13:21:22;;;;;;;1.93;1.77;;;;;;;;;;5043800;28;20215;-66
2022/12/25 13:23:55;;;;;;;1.30;1.30;;;;;;;;;;5042418;28;20273;-65
2022/12/25 13:26:23;;;;;;;3.23;1.80;;;;;;;;;;5033292;28;20243;-65
2022/12/25 13:28:54;;;;;;;2.07;1.90;;;;;;;;;;5038398;28;20618;-65
2022/12/25 13:31:22;;;;;;;2.10;1.70;;;;;;;;;;5039964;28;20211;-65
2022/12/25 13:33:53;;;;;;;1.47;1.47;;;;;;;;;;5032164;28;20209;-64
2022/12/25 13:36:20;;;;;;;1.83;1.73;;;;;;;;;;5032739;28;20208;-66
2022/12/25 13:38:48;;;;;;;1.80;1.70;;;;;;;;;;5029538;28;20220;-66
2022/12/25 13:44:07;;;;;;;5.37;1.73;;;;;;;;;;5032621;28;20302;-64
2022/12/25 13:46:34;;;;;;;1.77;1.63;;;;;;;;;;5038286;28;20204;-65
2022/12/25 13:49:02;;;;;;;3.87;2.27;;;;;;;;;;5031062;28;20655;-66
2022/12/25 13:51:29;;;;;;;2.20;1.87;;;;;;;;;;5032392;28;20667;-64
2022/12/25 13:54:13;;;;;;;3.23;2.20;;;;;;;;;;5030055;28;20212;-65
2022/12/25 13:56:46;;;;;;;1.40;1.40;;;;;;;;;;5034039;28;20598;-65
2022/12/25 13:59:16;;;;;;;2.63;1.50;;;;;;;;;;5043076;28;20213;-67
2022/12/25 14:01:43;;;;;;;2.50;2.30;;;;;;;;;;5035975;28;20204;-65
2022/12/25 14:04:14;;;;;;;4.60;2.13;;;;;;;;;;5034464;28;20682;-64
2022/12/25 14:06:41;;;;;;;3.17;1.87;;;;;;;;;;5029694;28;20208;-62
2022/12/25 14:09:10;;;;;;;2.13;1.93;;;;;;;;;;5029682;28;20212;-64
2022/12/25 14:11:38;;;;;;;2.70;1.73;;;;;;;;;;5037041;28;20236;-63
2022/12/25 14:14:08;;;;;;;2.13;2.03;;;;;;;;;;5038616;28;20215;-63
2022/12/25 14:16:37;;;;;;;5.93;2.53;;;;;;;;;;5032758;28;20205;-62
2022/12/25 14:19:04;;;;;;;2.87;2.33;;;;;;;;;;5028783;28;20208;-63
2022/12/25 14:21:32;;;;;;;2.67;2.17;;;;;;;;;;5038672;28;20216;-63
2022/12/25 14:23:59;;;;;;;5.40;3.93;;;;;;;;;;5039135;28;20670;-63
2022/12/25 14:26:28;;;;;;;9.67;5.70;;;;;;;;;;5033508;28;20212;-63
2022/12/25 14:28:58;;;;;;;4.97;3.70;;;;;;;;;;5038253;28;20223;-63
2022/12/25 14:31:25;;;;;;;3.80;3.33;;;;;;;;;;5036183;28;20219;-62
2022/12/25 14:33:53;;;;;;;1.80;1.70;;;;;;;;;;5027822;28;21121;-62
2022/12/25 14:36:20;;;;;;;1.90;1.80;;;;;;;;;;5043330;28;20694;-63
2022/12/25 14:38:56;;;;;;;2.70;1.63;;;;;;;;;;5048173;28;20216;-62
2022/12/25 14:41:32;;;;;;;2.20;2.10;;;;;;;;;;5039721;28;20211;-62
2022/12/25 14:44:00;;;;;;;2.53;2.33;;;;;;;;;;5028172;28;20208;-62
2022/12/25 14:46:28;;;;;;;54.87;20.23;;;;;;;;;;5044631;28;20208;-63
2022/12/25 14:49:01;;;;;;;4.27;3.63;;;;;;;;;;5034716;28;20220;-63
2022/12/25 14:51:28;;;;;;;26.33;11.50;;;;;;;;;;5028647;28;20208;-63
2022/12/25 14:53:56;;;;;;;3.73;3.43;;;;;;;;;;5031282;28;20209;-63
2022/12/25 14:56:24;;;;;;;8.30;4.20;;;;;;;;;;5040102;28;20227;-63
2022/12/25 14:58:53;;;;;;;1.90;1.80;;;;;;;;;;5047920;28;20299;-63
2022/12/25 15:01:22;;;;;;;4.10;1.37;;;;;;;;;;5038308;28;20212;-63
2022/12/25 15:03:50;;;;;;;17.30;6.77;;;;;;;;;;5029291;28;20223;-63
2022/12/25 15:06:21;;;;;;;25.60;9.80;;;;;;;;;;5032464;28;20212;-63
2022/12/25 15:08:55;;;;;;;12.57;7.83;;;;;;;;;;5031693;28;20231;-63
2022/12/25 15:11:22;;;;;;;6.07;4.83;;;;;;;;;;5038072;28;20667;-64
2022/12/25 15:13:49;;;;;;;9.10;5.93;;;;;;;;;;5035433;28;20209;-63
2022/12/25 15:16:18;;;;;;;6.60;4.37;;;;;;;;;;5033186;28;20732;-63
2022/12/25 15:18:46;;;;;;;5.40;3.70;;;;;;;;;;5040440;28;20204;-63
2022/12/25 15:21:16;;;;;;;4.93;3.60;;;;;;;;;;5034632;28;20277;-63
2022/12/25 15:23:44;;;;;;;51.37;16.63;;;;;;;;;;5037497;28;20215;-63
2022/12/25 15:26:13;;;;;;;31.30;11.10;;;;;;;;;;5034493;28;20204;-63
2022/12/25 15:28:40;;;;;;;31.17;11.67;;;;;;;;;;5050852;28;20227;-63
2022/12/25 15:31:15;;;;;;;4.30;3.27;;;;;;;;;;5047978;28;20212;-62
2022/12/25 15:33:42;;;;;;;2.73;2.53;;;;;;;;;;5038234;28;20208;-63
2022/12/25 15:36:09;;;;;;;5.43;3.70;;;;;;;;;;5031322;28;20633;-63
2022/12/25 15:38:37;;;;;;;3.83;3.40;;;;;;;;;;5031719;28;20204;-63
2022/12/25 15:41:06;;;;;;;4.13;3.73;;;;;;;;;;5032212;28;20204;-63
2022/12/25 15:43:33;;;;;;;10.70;4.23;;;;;;;;;;5038441;28;20216;-62
2022/12/25 15:46:00;;;;;;;11.97;4.70;;;;;;;;;;5039019;28;20616;-62
2022/12/25 15:48:27;;;;;;;12.53;5.40;;;;;;;;;;5038763;28;20232;-62
2022/12/25 15:50:54;;;;;;;13.23;6.80;;;;;;;;;;5031999;28;20235;-63
2022/12/25 15:53:21;;;;;;;9.30;5.27;;;;;;;;;;5046575;28;20207;-66
2022/12/25 15:55:48;;;;;;;12.10;6.40;;;;;;;;;;5034851;28;20224;-63
2022/12/25 15:58:16;;;;;;;15.70;7.03;;;;;;;;;;5044723;28;20283;-62
2022/12/25 16:00:44;;;;;;;15.50;7.77;;;;;;;;;;5044174;28;20651;-64
2022/12/25 16:03:11;;;;;;;14.03;6.33;;;;;;;;;;5041135;28;20219;-64
2022/12/25 16:05:38;;;;;;;13.03;6.67;;;;;;;;;;5035898;28;20216;-63
2022/12/25 16:08:05;;;;;;;13.27;5.23;;;;;;;;;;5033790;28;20716;-63
2022/12/25 16:10:32;;;;;;;5.63;4.23;;;;;;;;;;5037464;28;20870;-64
2022/12/25 16:12:59;;;;;;;5.57;3.60;;;;;;;;;;5032701;28;20224;-66
2022/12/25 16:15:27;;;;;;;2.43;2.23;;;;;;;;;;5035140;28;20683;-61
2022/12/25 16:17:54;;;;;;;3.77;2.40;;;;;;;;;;5034049;28;20262;-63
2022/12/25 16:20:21;;;;;;;3.93;2.73;;;;;;;;;;5045398;28;20673;-64
2022/12/25 16:22:48;;;;;;;2.87;2.67;;;;;;;;;;5047069;28;20203;-62
2022/12/25 16:25:17;;;;;;;4.23;3.20;;;;;;;;;;5037204;28;20663;-63
2022/12/25 16:27:44;;;;;;;6.20;4.83;;;;;;;;;;5043752;28;20269;-62
2022/12/25 16:30:12;;;;;;;4.87;2.57;;;;;;;;;;5041193;28;20213;-64
2022/12/25 16:32:41;;;;;;;3.00;2.70;;;;;;;;;;5034848;28;20294;-64
2022/12/25 16:35:09;;;;;;;5.60;3.13;;;;;;;;;;5034003;28;20218;-64
2022/12/25 16:37:36;;;;;;;3.27;2.80;;;;;;;;;;5047249;28;20256;-64
2022/12/25 16:40:04;;;;;;;4.57;2.60;;;;;;;;;;5039368;28;20574;-62